sensor_id;sensor_type;location;lat;lon;timestamp;P1;durP1;ratioP1;P2;durP2;ratioP2
71456;SDS011;59263;48.160;11.752;2024-03-02T00:01:14;13.52;;;5.60;;
71456;SDS011;59263;48.160;11.752;2024-03-02T00:03:39;12.20;;;4.97;;
71456;SDS011;59263;48.160;11.752;2024-03-02T00:06:05;11.55;;;5.22;;
71456;SDS011;59263;48.160;11.752;2024-03-02T00:08:31;13.88;;;5.03;;
71456;SDS011;59263;48.160;11.752;2024-03-02T00:10:57;13.77;;;5.03;;
71456;SDS011;59263;48.160;11.752;2024-03-02T00:13:22;12.95;;;4.88;;
71456;SDS011;59263;48.160;11.752;2024-03-02T00:15:54;11.10;;;4.70;;
71456;SDS011;59263;48.160;11.752;2024-03-02T00:20:55;11.30;;;4.72;;
71456;SDS011;59263;48.160;11.752;2024-03-02T00:23:21;11.93;;;4.13;;
71456;SDS011;59263;48.160;11.752;2024-03-02T00:25:47;10.85;;;4.60;;
71456;SDS011;59263;48.160;11.752;2024-03-02T00:28:14;12.82;;;4.57;;
71456;SDS011;59263;48.160;11.752;2024-03-02T00:33:12;13.27;;;5.47;;
71456;SDS011;59263;48.160;11.752;2024-03-02T00:35:37;11.38;;;4.82;;
71456;SDS011;59263;48.160;11.752;2024-03-02T00:38:06;13.55;;;5.15;;
71456;SDS011;59263;48.160;11.752;2024-03-02T00:40:31;12.63;;;5.32;;
71456;SDS011;59263;48.160;11.752;2024-03-02T00:42:57;14.02;;;5.65;;
71456;SDS011;59263;48.160;11.752;2024-03-02T00:45:22;15.30;;;6.73;;
71456;SDS011;59263;48.160;11.752;2024-03-02T00:47:49;13.05;;;5.30;;
71456;SDS011;59263;48.160;11.752;2024-03-02T00:50:15;12.03;;;4.70;;
71456;SDS011;59263;48.160;11.752;2024-03-02T00:52:40;12.97;;;5.47;;
71456;SDS011;59263;48.160;11.752;2024-03-02T00:55:06;11.47;;;5.63;;
71456;SDS011;59263;48.160;11.752;2024-03-02T00:57:32;13.30;;;5.30;;
71456;SDS011;59263;48.160;11.752;2024-03-02T00:59:59;15.10;;;5.25;;
71456;SDS011;59263;48.160;11.752;2024-03-02T01:02:24;13.17;;;5.03;;
71456;SDS011;59263;48.160;11.752;2024-03-02T01:04:49;12.60;;;4.70;;
71456;SDS011;59263;48.160;11.752;2024-03-02T01:07:15;11.47;;;4.70;;
71456;SDS011;59263;48.160;11.752;2024-03-02T01:09:40;11.17;;;4.70;;
71456;SDS011;59263;48.160;11.752;2024-03-02T01:12:06;14.13;;;5.40;;
71456;SDS011;59263;48.160;11.752;2024-03-02T01:14:31;13.30;;;5.73;;
71456;SDS011;59263;48.160;11.752;2024-03-02T01:16:56;13.77;;;5.30;;
71456;SDS011;59263;48.160;11.752;2024-03-02T01:19:22;13.33;;;5.97;;
71456;SDS011;59263;48.160;11.752;2024-03-02T01:21:47;14.27;;;5.77;;
71456;SDS011;59263;48.160;11.752;2024-03-02T01:24:12;12.90;;;4.90;;
71456;SDS011;59263;48.160;11.752;2024-03-02T01:26:38;14.18;;;5.63;;
71456;SDS011;59263;48.160;11.752;2024-03-02T01:29:03;12.88;;;5.53;;
71456;SDS011;59263;48.160;11.752;2024-03-02T01:31:28;11.55;;;4.45;;
71456;SDS011;59263;48.160;11.752;2024-03-02T01:33:53;13.37;;;5.40;;
71456;SDS011;59263;48.160;11.752;2024-03-02T01:36:19;11.73;;;5.15;;
71456;SDS011;59263;48.160;11.752;2024-03-02T01:38:44;12.93;;;4.90;;
71456;SDS011;59263;48.160;11.752;2024-03-02T01:41:09;13.47;;;4.97;;
71456;SDS011;59263;48.160;11.752;2024-03-02T01:43:34;12.83;;;4.83;;
71456;SDS011;59263;48.160;11.752;2024-03-02T01:46:00;10.50;;;4.50;;
71456;SDS011;59263;48.160;11.752;2024-03-02T01:48:25;12.27;;;4.67;;
71456;SDS011;59263;48.160;11.752;2024-03-02T01:50:50;13.30;;;5.07;;
71456;SDS011;59263;48.160;11.752;2024-03-02T01:53:16;12.73;;;5.37;;
71456;SDS011;59263;48.160;11.752;2024-03-02T01:55:41;15.23;;;5.40;;
71456;SDS011;59263;48.160;11.752;2024-03-02T01:58:06;12.10;;;5.30;;
71456;SDS011;59263;48.160;11.752;2024-03-02T02:00:32;13.13;;;5.33;;
71456;SDS011;59263;48.160;11.752;2024-03-02T02:02:57;14.32;;;5.47;;
71456;SDS011;59263;48.160;11.752;2024-03-02T02:05:22;13.00;;;4.90;;
71456;SDS011;59263;48.160;11.752;2024-03-02T02:07:48;13.10;;;4.83;;
71456;SDS011;59263;48.160;11.752;2024-03-02T02:10:13;12.73;;;5.10;;
71456;SDS011;59263;48.160;11.752;2024-03-02T02:12:39;12.07;;;5.10;;
71456;SDS011;59263;48.160;11.752;2024-03-02T02:15:21;12.95;;;5.15;;
71456;SDS011;59263;48.160;11.752;2024-03-02T02:17:46;12.10;;;4.60;;
71456;SDS011;59263;48.160;11.752;2024-03-02T02:20:11;13.55;;;5.20;;
71456;SDS011;59263;48.160;11.752;2024-03-02T02:22:37;12.03;;;5.30;;
71456;SDS011;59263;48.160;11.752;2024-03-02T02:25:02;12.17;;;5.13;;
71456;SDS011;59263;48.160;11.752;2024-03-02T02:27:27;11.27;;;5.10;;
71456;SDS011;59263;48.160;11.752;2024-03-02T02:29:52;14.80;;;5.57;;
71456;SDS011;59263;48.160;11.752;2024-03-02T02:32:18;13.63;;;5.30;;
71456;SDS011;59263;48.160;11.752;2024-03-02T02:34:43;13.60;;;5.67;;
71456;SDS011;59263;48.160;11.752;2024-03-02T02:37:09;12.53;;;5.03;;
71456;SDS011;59263;48.160;11.752;2024-03-02T02:39:34;14.50;;;5.83;;
71456;SDS011;59263;48.160;11.752;2024-03-02T02:41:59;12.93;;;5.60;;
71456;SDS011;59263;48.160;11.752;2024-03-02T02:44:26;13.43;;;5.55;;
71456;SDS011;59263;48.160;11.752;2024-03-02T02:46:51;14.07;;;5.60;;
71456;SDS011;59263;48.160;11.752;2024-03-02T02:49:16;14.07;;;5.67;;
71456;SDS011;59263;48.160;11.752;2024-03-02T02:51:42;15.17;;;6.47;;
71456;SDS011;59263;48.160;11.752;2024-03-02T02:54:07;14.83;;;6.23;;
71456;SDS011;59263;48.160;11.752;2024-03-02T02:56:32;13.57;;;5.90;;
71456;SDS011;59263;48.160;11.752;2024-03-02T02:58:57;13.90;;;5.72;;
71456;SDS011;59263;48.160;11.752;2024-03-02T03:01:23;13.70;;;6.22;;
71456;SDS011;59263;48.160;11.752;2024-03-02T03:03:48;12.97;;;5.37;;
71456;SDS011;59263;48.160;11.752;2024-03-02T03:06:14;14.53;;;6.20;;
71456;SDS011;59263;48.160;11.752;2024-03-02T03:08:39;14.83;;;6.30;;
71456;SDS011;59263;48.160;11.752;2024-03-02T03:11:04;14.97;;;6.23;;
71456;SDS011;59263;48.160;11.752;2024-03-02T03:13:30;13.50;;;4.97;;
71456;SDS011;59263;48.160;11.752;2024-03-02T03:15:55;16.95;;;6.43;;
71456;SDS011;59263;48.160;11.752;2024-03-02T03:18:20;14.40;;;5.80;;
71456;SDS011;59263;48.160;11.752;2024-03-02T03:20:46;14.00;;;5.80;;
71456;SDS011;59263;48.160;11.752;2024-03-02T03:23:11;15.10;;;6.23;;
71456;SDS011;59263;48.160;11.752;2024-03-02T03:25:40;15.55;;;6.05;;
71456;SDS011;59263;48.160;11.752;2024-03-02T03:28:05;14.50;;;6.47;;
71456;SDS011;59263;48.160;11.752;2024-03-02T03:30:31;18.67;;;6.20;;
71456;SDS011;59263;48.160;11.752;2024-03-02T03:32:56;16.83;;;6.23;;
71456;SDS011;59263;48.160;11.752;2024-03-02T03:35:21;14.07;;;5.33;;
71456;SDS011;59263;48.160;11.752;2024-03-02T03:37:47;14.05;;;6.25;;
71456;SDS011;59263;48.160;11.752;2024-03-02T03:40:13;17.50;;;6.23;;
71456;SDS011;59263;48.160;11.752;2024-03-02T03:42:39;15.05;;;5.70;;
71456;SDS011;59263;48.160;11.752;2024-03-02T03:45:04;15.97;;;6.33;;
71456;SDS011;59263;48.160;11.752;2024-03-02T03:47:33;15.53;;;7.20;;
71456;SDS011;59263;48.160;11.752;2024-03-02T03:49:58;16.48;;;6.30;;
71456;SDS011;59263;48.160;11.752;2024-03-02T03:52:23;15.23;;;6.73;;
71456;SDS011;59263;48.160;11.752;2024-03-02T03:54:49;15.27;;;6.10;;
71456;SDS011;59263;48.160;11.752;2024-03-02T03:57:14;14.87;;;6.40;;
71456;SDS011;59263;48.160;11.752;2024-03-02T03:59:39;15.03;;;6.30;;
71456;SDS011;59263;48.160;11.752;2024-03-02T04:02:04;14.00;;;5.77;;
71456;SDS011;59263;48.160;11.752;2024-03-02T04:04:30;13.10;;;5.87;;
71456;SDS011;59263;48.160;11.752;2024-03-02T04:06:55;13.57;;;6.50;;
71456;SDS011;59263;48.160;11.752;2024-03-02T04:09:20;15.87;;;6.10;;
71456;SDS011;59263;48.160;11.752;2024-03-02T04:11:45;17.37;;;6.53;;
71456;SDS011;59263;48.160;11.752;2024-03-02T04:14:11;16.02;;;6.07;;
71456;SDS011;59263;48.160;11.752;2024-03-02T04:16:37;15.70;;;6.25;;
71456;SDS011;59263;48.160;11.752;2024-03-02T04:19:02;14.93;;;6.30;;
71456;SDS011;59263;48.160;11.752;2024-03-02T04:21:28;14.73;;;7.03;;
71456;SDS011;59263;48.160;11.752;2024-03-02T04:23:54;16.43;;;6.27;;
71456;SDS011;59263;48.160;11.752;2024-03-02T04:26:23;14.15;;;6.53;;
71456;SDS011;59263;48.160;11.752;2024-03-02T04:28:48;15.03;;;6.57;;
71456;SDS011;59263;48.160;11.752;2024-03-02T04:31:14;16.00;;;6.07;;
71456;SDS011;59263;48.160;11.752;2024-03-02T04:33:40;16.20;;;6.47;;
71456;SDS011;59263;48.160;11.752;2024-03-02T04:36:05;17.30;;;6.57;;
71456;SDS011;59263;48.160;11.752;2024-03-02T04:38:30;15.77;;;5.93;;
71456;SDS011;59263;48.160;11.752;2024-03-02T04:40:57;12.93;;;6.10;;
71456;SDS011;59263;48.160;11.752;2024-03-02T04:43:22;14.50;;;6.80;;
71456;SDS011;59263;48.160;11.752;2024-03-02T04:45:47;16.00;;;6.70;;
71456;SDS011;59263;48.160;11.752;2024-03-02T04:48:12;16.40;;;6.90;;
71456;SDS011;59263;48.160;11.752;2024-03-02T04:50:38;14.60;;;5.80;;
71456;SDS011;59263;48.160;11.752;2024-03-02T04:53:04;13.63;;;6.60;;
71456;SDS011;59263;48.160;11.752;2024-03-02T04:55:29;15.83;;;7.00;;
71456;SDS011;59263;48.160;11.752;2024-03-02T04:58:14;16.53;;;6.63;;
71456;SDS011;59263;48.160;11.752;2024-03-02T05:00:39;16.70;;;6.30;;
71456;SDS011;59263;48.160;11.752;2024-03-02T05:03:04;16.80;;;7.27;;
71456;SDS011;59263;48.160;11.752;2024-03-02T05:05:30;18.33;;;8.13;;
71456;SDS011;59263;48.160;11.752;2024-03-02T05:07:55;15.83;;;6.87;;
71456;SDS011;59263;48.160;11.752;2024-03-02T05:10:20;18.93;;;7.43;;
71456;SDS011;59263;48.160;11.752;2024-03-02T05:12:45;15.67;;;6.77;;
71456;SDS011;59263;48.160;11.752;2024-03-02T05:15:11;16.80;;;7.10;;
71456;SDS011;59263;48.160;11.752;2024-03-02T05:17:37;15.32;;;6.97;;
71456;SDS011;59263;48.160;11.752;2024-03-02T05:20:03;16.90;;;7.78;;
71456;SDS011;59263;48.160;11.752;2024-03-02T05:22:28;17.05;;;7.05;;
71456;SDS011;59263;48.160;11.752;2024-03-02T05:24:54;14.90;;;6.20;;
71456;SDS011;59263;48.160;11.752;2024-03-02T05:27:19;16.03;;;6.90;;
71456;SDS011;59263;48.160;11.752;2024-03-02T05:29:44;17.50;;;7.50;;
71456;SDS011;59263;48.160;11.752;2024-03-02T05:32:09;14.80;;;6.67;;
71456;SDS011;59263;48.160;11.752;2024-03-02T05:34:35;16.77;;;6.03;;
71456;SDS011;59263;48.160;11.752;2024-03-02T05:37:00;14.20;;;6.57;;
71456;SDS011;59263;48.160;11.752;2024-03-02T05:39:26;17.83;;;7.17;;
71456;SDS011;59263;48.160;11.752;2024-03-02T05:41:51;16.87;;;7.03;;
71456;SDS011;59263;48.160;11.752;2024-03-02T05:44:16;14.60;;;6.53;;
71456;SDS011;59263;48.160;11.752;2024-03-02T05:46:41;16.70;;;7.45;;
71456;SDS011;59263;48.160;11.752;2024-03-02T05:49:07;15.35;;;6.82;;
71456;SDS011;59263;48.160;11.752;2024-03-02T05:51:33;15.73;;;6.57;;
71456;SDS011;59263;48.160;11.752;2024-03-02T05:53:58;17.27;;;7.10;;
71456;SDS011;59263;48.160;11.752;2024-03-02T05:56:23;18.53;;;7.13;;
71456;SDS011;59263;48.160;11.752;2024-03-02T05:58:48;16.53;;;6.77;;
71456;SDS011;59263;48.160;11.752;2024-03-02T06:01:33;15.95;;;7.10;;
71456;SDS011;59263;48.160;11.752;2024-03-02T06:03:59;17.13;;;6.97;;
71456;SDS011;59263;48.160;11.752;2024-03-02T06:06:24;17.73;;;7.43;;
71456;SDS011;59263;48.160;11.752;2024-03-02T06:08:50;17.17;;;7.03;;
71456;SDS011;59263;48.160;11.752;2024-03-02T06:11:15;16.77;;;7.07;;
71456;SDS011;59263;48.160;11.752;2024-03-02T06:13:40;17.63;;;7.43;;
71456;SDS011;59263;48.160;11.752;2024-03-02T06:16:05;16.87;;;7.63;;
71456;SDS011;59263;48.160;11.752;2024-03-02T06:18:31;15.40;;;7.27;;
71456;SDS011;59263;48.160;11.752;2024-03-02T06:20:56;17.27;;;7.20;;
71456;SDS011;59263;48.160;11.752;2024-03-02T06:23:21;17.97;;;7.50;;
71456;SDS011;59263;48.160;11.752;2024-03-02T06:25:47;17.63;;;7.23;;
71456;SDS011;59263;48.160;11.752;2024-03-02T06:28:12;17.63;;;7.13;;
71456;SDS011;59263;48.160;11.752;2024-03-02T06:30:40;15.27;;;7.00;;
71456;SDS011;59263;48.160;11.752;2024-03-02T06:33:05;15.77;;;7.38;;
71456;SDS011;59263;48.160;11.752;2024-03-02T06:35:31;14.65;;;7.07;;
71456;SDS011;59263;48.160;11.752;2024-03-02T06:37:56;17.15;;;7.25;;
71456;SDS011;59263;48.160;11.752;2024-03-02T06:40:21;14.57;;;6.47;;
71456;SDS011;59263;48.160;11.752;2024-03-02T06:42:47;18.13;;;7.43;;
71456;SDS011;59263;48.160;11.752;2024-03-02T06:45:12;16.60;;;7.57;;
71456;SDS011;59263;48.160;11.752;2024-03-02T06:47:37;18.60;;;7.47;;
71456;SDS011;59263;48.160;11.752;2024-03-02T06:50:02;17.57;;;7.40;;
71456;SDS011;59263;48.160;11.752;2024-03-02T06:52:28;20.10;;;7.87;;
71456;SDS011;59263;48.160;11.752;2024-03-02T06:54:53;18.67;;;8.20;;
71456;SDS011;59263;48.160;11.752;2024-03-02T06:57:18;16.37;;;7.50;;
71456;SDS011;59263;48.160;11.752;2024-03-02T06:59:44;16.45;;;7.50;;
71456;SDS011;59263;48.160;11.752;2024-03-02T07:02:10;20.30;;;7.63;;
71456;SDS011;59263;48.160;11.752;2024-03-02T07:04:35;16.03;;;8.53;;
71456;SDS011;59263;48.160;11.752;2024-03-02T07:07:00;17.50;;;7.90;;
71456;SDS011;59263;48.160;11.752;2024-03-02T07:09:25;16.93;;;7.57;;
71456;SDS011;59263;48.160;11.752;2024-03-02T07:11:51;18.07;;;8.00;;
71456;SDS011;59263;48.160;11.752;2024-03-02T07:14:16;18.87;;;8.13;;
71456;SDS011;59263;48.160;11.752;2024-03-02T07:16:42;14.90;;;7.18;;
71456;SDS011;59263;48.160;11.752;2024-03-02T07:19:08;15.57;;;7.30;;
71456;SDS011;59263;48.160;11.752;2024-03-02T07:21:33;16.33;;;6.50;;
71456;SDS011;59263;48.160;11.752;2024-03-02T07:23:59;14.93;;;7.33;;
71456;SDS011;59263;48.160;11.752;2024-03-02T07:26:24;17.17;;;7.50;;
71456;SDS011;59263;48.160;11.752;2024-03-02T07:28:49;20.13;;;6.93;;
71456;SDS011;59263;48.160;11.752;2024-03-02T07:31:15;16.90;;;7.60;;
71456;SDS011;59263;48.160;11.752;2024-03-02T07:33:41;17.57;;;7.73;;
71456;SDS011;59263;48.160;11.752;2024-03-02T07:36:06;18.77;;;8.57;;
71456;SDS011;59263;48.160;11.752;2024-03-02T07:38:32;22.38;;;9.70;;
71456;SDS011;59263;48.160;11.752;2024-03-02T07:40:59;17.80;;;9.35;;
71456;SDS011;59263;48.160;11.752;2024-03-02T07:43:25;17.97;;;8.03;;
71456;SDS011;59263;48.160;11.752;2024-03-02T07:45:50;18.30;;;8.30;;
71456;SDS011;59263;48.160;11.752;2024-03-02T07:48:15;18.48;;;8.45;;
71456;SDS011;59263;48.160;11.752;2024-03-02T07:50:41;17.67;;;8.63;;
71456;SDS011;59263;48.160;11.752;2024-03-02T07:53:06;19.77;;;8.65;;
71456;SDS011;59263;48.160;11.752;2024-03-02T07:55:33;18.85;;;8.07;;
71456;SDS011;59263;48.160;11.752;2024-03-02T07:57:58;18.98;;;8.35;;
71456;SDS011;59263;48.160;11.752;2024-03-02T08:00:25;19.80;;;8.48;;
71456;SDS011;59263;48.160;11.752;2024-03-02T08:02:50;20.13;;;9.23;;
71456;SDS011;59263;48.160;11.752;2024-03-02T08:05:17;22.70;;;10.60;;
71456;SDS011;59263;48.160;11.752;2024-03-02T08:07:44;18.65;;;8.88;;
71456;SDS011;59263;48.160;11.752;2024-03-02T08:10:09;20.33;;;9.57;;
71456;SDS011;59263;48.160;11.752;2024-03-02T08:12:35;20.00;;;9.47;;
71456;SDS011;59263;48.160;11.752;2024-03-02T08:15:00;16.57;;;8.67;;
71456;SDS011;59263;48.160;11.752;2024-03-02T08:17:25;21.53;;;9.37;;
71456;SDS011;59263;48.160;11.752;2024-03-02T08:19:50;21.37;;;9.07;;
71456;SDS011;59263;48.160;11.752;2024-03-02T08:22:15;22.37;;;9.67;;
71456;SDS011;59263;48.160;11.752;2024-03-02T08:24:41;24.13;;;9.40;;
71456;SDS011;59263;48.160;11.752;2024-03-02T08:27:06;20.67;;;9.23;;
71456;SDS011;59263;48.160;11.752;2024-03-02T08:29:31;19.87;;;8.30;;
71456;SDS011;59263;48.160;11.752;2024-03-02T08:31:56;24.93;;;9.77;;
71456;SDS011;59263;48.160;11.752;2024-03-02T08:34:22;20.93;;;9.60;;
71456;SDS011;59263;48.160;11.752;2024-03-02T08:36:47;21.50;;;9.53;;
71456;SDS011;59263;48.160;11.752;2024-03-02T08:39:12;21.17;;;9.47;;
71456;SDS011;59263;48.160;11.752;2024-03-02T08:41:49;24.65;;;10.48;;
71456;SDS011;59263;48.160;11.752;2024-03-02T08:44:15;20.20;;;9.98;;
71456;SDS011;59263;48.160;11.752;2024-03-02T08:46:40;22.70;;;10.52;;
71456;SDS011;59263;48.160;11.752;2024-03-02T08:49:06;24.37;;;9.63;;
71456;SDS011;59263;48.160;11.752;2024-03-02T08:51:31;20.87;;;9.90;;
71456;SDS011;59263;48.160;11.752;2024-03-02T08:53:57;21.60;;;9.70;;
71456;SDS011;59263;48.160;11.752;2024-03-02T08:56:23;22.42;;;10.02;;
71456;SDS011;59263;48.160;11.752;2024-03-02T08:58:48;25.15;;;9.68;;
71456;SDS011;59263;48.160;11.752;2024-03-02T09:01:14;23.05;;;9.93;;
71456;SDS011;59263;48.160;11.752;2024-03-02T09:03:39;25.63;;;10.27;;
71456;SDS011;59263;48.160;11.752;2024-03-02T09:06:04;23.47;;;10.20;;
71456;SDS011;59263;48.160;11.752;2024-03-02T09:08:29;25.47;;;10.30;;
71456;SDS011;59263;48.160;11.752;2024-03-02T09:10:55;26.83;;;11.47;;
71456;SDS011;59263;48.160;11.752;2024-03-02T09:13:21;22.70;;;10.18;;
71456;SDS011;59263;48.160;11.752;2024-03-02T09:15:47;25.08;;;9.95;;
71456;SDS011;59263;48.160;11.752;2024-03-02T09:18:12;22.57;;;9.73;;
71456;SDS011;59263;48.160;11.752;2024-03-02T09:20:38;24.15;;;10.10;;
71456;SDS011;59263;48.160;11.752;2024-03-02T09:23:03;28.37;;;10.93;;
71456;SDS011;59263;48.160;11.752;2024-03-02T09:25:28;28.80;;;11.50;;
71456;SDS011;59263;48.160;11.752;2024-03-02T09:27:53;24.33;;;10.47;;
71456;SDS011;59263;48.160;11.752;2024-03-02T09:30:19;24.13;;;9.93;;
71456;SDS011;59263;48.160;11.752;2024-03-02T09:32:44;21.47;;;9.37;;
71456;SDS011;59263;48.160;11.752;2024-03-02T09:35:09;21.50;;;9.77;;
71456;SDS011;59263;48.160;11.752;2024-03-02T09:37:34;22.30;;;9.10;;
71456;SDS011;59263;48.160;11.752;2024-03-02T09:40:00;23.55;;;8.60;;
71456;SDS011;59263;48.160;11.752;2024-03-02T09:42:25;19.57;;;7.93;;
71456;SDS011;59263;48.160;11.752;2024-03-02T09:44:51;23.93;;;9.90;;
71456;SDS011;59263;48.160;11.752;2024-03-02T09:47:16;22.47;;;8.77;;
71456;SDS011;59263;48.160;11.752;2024-03-02T09:49:42;20.17;;;8.33;;
71456;SDS011;59263;48.160;11.752;2024-03-02T09:52:07;20.67;;;8.77;;
71456;SDS011;59263;48.160;11.752;2024-03-02T09:54:32;23.20;;;9.60;;
71456;SDS011;59263;48.160;11.752;2024-03-02T09:56:58;24.70;;;9.13;;
71456;SDS011;59263;48.160;11.752;2024-03-02T09:59:23;23.58;;;9.23;;
71456;SDS011;59263;48.160;11.752;2024-03-02T10:01:55;22.87;;;8.90;;
71456;SDS011;59263;48.160;11.752;2024-03-02T10:04:20;22.30;;;9.23;;
71456;SDS011;59263;48.160;11.752;2024-03-02T10:06:45;19.63;;;9.13;;
71456;SDS011;59263;48.160;11.752;2024-03-02T10:09:11;26.47;;;9.83;;
71456;SDS011;59263;48.160;11.752;2024-03-02T10:11:38;23.25;;;9.65;;
71456;SDS011;59263;48.160;11.752;2024-03-02T10:14:07;23.10;;;9.95;;
71456;SDS011;59263;48.160;11.752;2024-03-02T10:16:34;23.85;;;9.05;;
71456;SDS011;59263;48.160;11.752;2024-03-02T10:19:11;21.08;;;8.63;;
71456;SDS011;59263;48.160;11.752;2024-03-02T10:21:39;22.38;;;8.65;;
71456;SDS011;59263;48.160;11.752;2024-03-02T10:24:08;25.42;;;9.43;;
71456;SDS011;59263;48.160;11.752;2024-03-02T10:26:33;22.40;;;8.80;;
71456;SDS011;59263;48.160;11.752;2024-03-02T10:28:59;23.37;;;9.00;;
71456;SDS011;59263;48.160;11.752;2024-03-02T10:31:24;22.88;;;9.98;;
71456;SDS011;59263;48.160;11.752;2024-03-02T10:33:53;22.13;;;9.75;;
71456;SDS011;59263;48.160;11.752;2024-03-02T10:36:18;24.20;;;10.10;;
71456;SDS011;59263;48.160;11.752;2024-03-02T10:38:44;22.10;;;8.68;;
71456;SDS011;59263;48.160;11.752;2024-03-02T10:41:10;21.77;;;9.97;;
71456;SDS011;59263;48.160;11.752;2024-03-02T10:43:35;24.38;;;9.40;;
71456;SDS011;59263;48.160;11.752;2024-03-02T10:46:01;20.90;;;8.53;;
71456;SDS011;59263;48.160;11.752;2024-03-02T10:48:26;24.37;;;9.20;;
71456;SDS011;59263;48.160;11.752;2024-03-02T10:50:52;24.07;;;9.33;;
71456;SDS011;59263;48.160;11.752;2024-03-02T10:53:18;25.33;;;10.05;;
71456;SDS011;59263;48.160;11.752;2024-03-02T10:55:43;23.00;;;8.93;;
71456;SDS011;59263;48.160;11.752;2024-03-02T10:58:09;25.88;;;9.60;;
71456;SDS011;59263;48.160;11.752;2024-03-02T11:00:37;20.85;;;7.97;;
71456;SDS011;59263;48.160;11.752;2024-03-02T11:05:31;18.87;;;8.20;;
71456;SDS011;59263;48.160;11.752;2024-03-02T11:08:06;18.02;;;7.85;;
71456;SDS011;59263;48.160;11.752;2024-03-02T11:10:35;19.85;;;9.15;;
71456;SDS011;59263;48.160;11.752;2024-03-02T11:13:02;23.52;;;9.18;;
71456;SDS011;59263;48.160;11.752;2024-03-02T11:15:27;19.90;;;8.63;;
71456;SDS011;59263;48.160;11.752;2024-03-02T11:17:52;21.43;;;9.20;;
71456;SDS011;59263;48.160;11.752;2024-03-02T11:20:18;21.30;;;8.07;;
71456;SDS011;59263;48.160;11.752;2024-03-02T11:22:45;19.38;;;7.90;;
71456;SDS011;59263;48.160;11.752;2024-03-02T11:25:28;24.23;;;9.03;;
71456;SDS011;59263;48.160;11.752;2024-03-02T11:32:59;18.75;;;7.60;;
71456;SDS011;59263;48.160;11.752;2024-03-02T11:35:25;19.20;;;8.60;;
71456;SDS011;59263;48.160;11.752;2024-03-02T11:37:51;20.00;;;8.20;;
71456;SDS011;59263;48.160;11.752;2024-03-02T11:40:20;18.60;;;7.70;;
71456;SDS011;59263;48.160;11.752;2024-03-02T11:42:46;18.65;;;8.05;;
71456;SDS011;59263;48.160;11.752;2024-03-02T11:45:11;18.17;;;7.60;;
71456;SDS011;59263;48.160;11.752;2024-03-02T11:47:37;19.90;;;8.23;;
71456;SDS011;59263;48.160;11.752;2024-03-02T11:50:02;18.07;;;7.47;;
71456;SDS011;59263;48.160;11.752;2024-03-02T11:52:31;21.40;;;8.57;;
71456;SDS011;59263;48.160;11.752;2024-03-02T11:54:57;21.10;;;8.83;;
71456;SDS011;59263;48.160;11.752;2024-03-02T11:57:23;18.60;;;7.78;;
71456;SDS011;59263;48.160;11.752;2024-03-02T11:59:48;19.93;;;8.17;;
71456;SDS011;59263;48.160;11.752;2024-03-02T12:02:18;17.38;;;7.43;;
71456;SDS011;59263;48.160;11.752;2024-03-02T12:04:43;20.48;;;6.80;;
71456;SDS011;59263;48.160;11.752;2024-03-02T12:07:10;20.52;;;8.73;;
71456;SDS011;59263;48.160;11.752;2024-03-02T12:09:35;23.40;;;10.15;;
71456;SDS011;59263;48.160;11.752;2024-03-02T12:12:10;25.60;;;11.27;;
71456;SDS011;59263;48.160;11.752;2024-03-02T12:14:38;19.65;;;8.35;;
71456;SDS011;59263;48.160;11.752;2024-03-02T12:17:04;20.38;;;8.43;;
71456;SDS011;59263;48.160;11.752;2024-03-02T12:19:29;18.48;;;7.57;;
71456;SDS011;59263;48.160;11.752;2024-03-02T12:21:55;16.43;;;7.83;;
71456;SDS011;59263;48.160;11.752;2024-03-02T12:24:21;16.98;;;7.55;;
71456;SDS011;59263;48.160;11.752;2024-03-02T12:26:47;15.27;;;6.85;;
71456;SDS011;59263;48.160;11.752;2024-03-02T12:29:13;15.38;;;6.35;;
71456;SDS011;59263;48.160;11.752;2024-03-02T12:31:38;16.33;;;6.20;;
71456;SDS011;59263;48.160;11.752;2024-03-02T12:34:04;14.57;;;6.43;;
71456;SDS011;59263;48.160;11.752;2024-03-02T12:36:29;15.47;;;6.17;;
71456;SDS011;59263;48.160;11.752;2024-03-02T12:38:54;17.53;;;6.63;;
71456;SDS011;59263;48.160;11.752;2024-03-02T12:41:20;17.03;;;6.63;;
71456;SDS011;59263;48.160;11.752;2024-03-02T12:43:45;16.73;;;6.57;;
71456;SDS011;59263;48.160;11.752;2024-03-02T12:46:10;17.87;;;7.30;;
71456;SDS011;59263;48.160;11.752;2024-03-02T12:48:36;19.10;;;8.33;;
71456;SDS011;59263;48.160;11.752;2024-03-02T12:51:02;18.83;;;8.67;;
71456;SDS011;59263;48.160;11.752;2024-03-02T12:53:27;17.33;;;8.07;;
71456;SDS011;59263;48.160;11.752;2024-03-02T12:55:52;20.50;;;8.98;;
71456;SDS011;59263;48.160;11.752;2024-03-02T12:58:21;19.63;;;9.47;;
71456;SDS011;59263;48.160;11.752;2024-03-02T13:00:47;20.48;;;8.73;;
71456;SDS011;59263;48.160;11.752;2024-03-02T13:03:12;23.43;;;10.17;;
71456;SDS011;59263;48.160;11.752;2024-03-02T13:05:38;24.10;;;10.80;;
71456;SDS011;59263;48.160;11.752;2024-03-02T13:08:04;25.45;;;10.50;;
71456;SDS011;59263;48.160;11.752;2024-03-02T13:10:30;25.60;;;11.57;;
71456;SDS011;59263;48.160;11.752;2024-03-02T13:12:58;22.50;;;10.15;;
71456;SDS011;59263;48.160;11.752;2024-03-02T13:15:23;22.10;;;9.70;;
71456;SDS011;59263;48.160;11.752;2024-03-02T13:17:50;25.13;;;10.60;;
71456;SDS011;59263;48.160;11.752;2024-03-02T13:20:15;22.45;;;9.93;;
71456;SDS011;59263;48.160;11.752;2024-03-02T13:22:43;20.98;;;9.45;;
71456;SDS011;59263;48.160;11.752;2024-03-02T13:25:08;21.27;;;9.67;;
71456;SDS011;59263;48.160;11.752;2024-03-02T13:27:35;21.58;;;9.38;;
71456;SDS011;59263;48.160;11.752;2024-03-02T13:30:01;18.03;;;8.43;;
71456;SDS011;59263;48.160;11.752;2024-03-02T13:32:27;16.90;;;7.10;;
71456;SDS011;59263;48.160;11.752;2024-03-02T13:34:53;18.67;;;8.27;;
71456;SDS011;59263;48.160;11.752;2024-03-02T13:37:18;19.30;;;8.33;;
71456;SDS011;59263;48.160;11.752;2024-03-02T13:39:43;24.97;;;9.37;;
71456;SDS011;59263;48.160;11.752;2024-03-02T13:42:09;19.50;;;8.37;;
71456;SDS011;59263;48.160;11.752;2024-03-02T13:44:34;18.85;;;8.43;;
71456;SDS011;59263;48.160;11.752;2024-03-02T13:47:00;21.70;;;9.07;;
71456;SDS011;59263;48.160;11.752;2024-03-02T13:49:26;20.70;;;8.70;;
71456;SDS011;59263;48.160;11.752;2024-03-02T13:51:58;18.05;;;8.35;;
71456;SDS011;59263;48.160;11.752;2024-03-02T13:54:25;20.67;;;9.52;;
71456;SDS011;59263;48.160;11.752;2024-03-02T13:56:51;19.20;;;8.43;;
71456;SDS011;59263;48.160;11.752;2024-03-02T13:59:16;19.13;;;8.00;;
71456;SDS011;59263;48.160;11.752;2024-03-02T14:01:42;19.83;;;8.53;;
71456;SDS011;59263;48.160;11.752;2024-03-02T14:04:07;15.98;;;7.13;;
71456;SDS011;59263;48.160;11.752;2024-03-02T14:06:32;18.17;;;6.90;;
71456;SDS011;59263;48.160;11.752;2024-03-02T14:08:57;17.92;;;6.93;;
71456;SDS011;59263;48.160;11.752;2024-03-02T14:11:23;17.38;;;7.80;;
71456;SDS011;59263;48.160;11.752;2024-03-02T14:13:48;17.37;;;7.47;;
71456;SDS011;59263;48.160;11.752;2024-03-02T14:16:18;18.03;;;6.97;;
71456;SDS011;59263;48.160;11.752;2024-03-02T14:18:44;17.37;;;7.77;;
71456;SDS011;59263;48.160;11.752;2024-03-02T14:21:09;18.07;;;7.57;;
71456;SDS011;59263;48.160;11.752;2024-03-02T14:23:34;17.13;;;7.57;;
71456;SDS011;59263;48.160;11.752;2024-03-02T14:25:59;19.07;;;8.47;;